Time;durP1;ratioP1;P1;durP2;ratioP2;P2;SDS_P1;SDS_P2;PMS_P1;PMS_P2;Temp;Humidity;BMP_temperature;BMP_pressure;BME280_temperature;BME280_humidity;BME280_pressure;Samples;Min_cycle;Max_cycle;Signal;HPM_P1;HPM_P2
2022/12/04 00:01:30;;;;;;;;;18.00;13.75;;;;;20.34;56.18;100453.34;5060493;28;45300;-47
2022/12/04 00:03:58;;;;;;;;;17.00;16.50;;;;;20.33;56.51;100455.13;5022290;28;63519;-50
2022/12/04 00:06:23;;;;;;;;;17.00;16.00;;;;;20.33;55.85;100449.81;5005699;28;45179;-51
2022/12/04 00:08:49;;;;;;;;;20.00;18.25;;;;;20.33;56.13;100452.47;5024473;28;47330;-50
2022/12/04 00:11:21;;;;;;;;;17.50;16.00;;;;;20.34;56.30;100448.03;5047010;28;45278;-51
2022/12/04 00:13:47;;;;;;;;;18.50;17.50;;;;;20.32;56.34;100440.09;5028980;28;45313;-49
2022/12/04 00:16:17;;;;;;;;;18.50;17.00;;;;;20.32;56.14;100442.75;5022737;28;45194;-50
2022/12/04 00:18:43;;;;;;;;;17.50;15.50;;;;;20.32;55.98;100439.25;5047234;28;45326;-47
2022/12/04 00:21:09;;;;;;;;;16.50;15.00;;;;;20.32;56.25;100445.41;5041117;28;64991;-50
2022/12/04 00:23:36;;;;;;;;;21.00;16.75;;;;;20.33;56.26;100441.00;5005827;28;45303;-50
2022/12/04 00:26:02;;;;;;;;;17.25;16.50;;;;;20.33;56.02;100441.00;5036062;28;45293;-46
2022/12/04 00:28:27;;;;;;;;;20.25;15.75;;;;;20.32;56.18;100450.72;5060144;28;46224;-49
2022/12/04 00:30:53;;;;;;;;;17.25;14.75;;;;;20.32;56.21;100442.75;5059238;28;56968;-48
2022/12/04 00:33:18;;;;;;;;;20.00;18.25;;;;;20.32;55.97;100447.19;5041220;28;58038;-49
2022/12/04 00:35:44;;;;;;;;;18.50;17.25;;;;;20.31;56.18;100451.63;5059191;28;63257;-48
2022/12/04 00:38:09;;;;;;;;;18.00;17.25;;;;;20.32;55.98;100442.75;5059641;28;54827;-51
2022/12/04 00:40:34;;;;;;;;;13.50;12.75;;;;;20.32;56.26;100439.25;5021640;28;50232;-49
2022/12/04 00:43:00;;;;;;;;;18.00;16.00;;;;;20.33;56.13;100441.00;5041545;28;53567;-46
2022/12/04 00:45:25;;;;;;;;;20.75;16.50;;;;;20.33;56.16;100431.25;5041532;28;45194;-49
2022/12/04 00:47:51;;;;;;;;;17.75;12.75;;;;;20.34;56.12;100432.13;5047156;28;64136;-48
2022/12/04 00:50:16;;;;;;;;;23.75;16.50;;;;;20.34;55.97;100434.78;5041422;28;45427;-48
2022/12/04 00:52:41;;;;;;;;;16.25;14.50;;;;;20.34;56.17;100434.78;5041814;28;45439;-47
2022/12/04 00:55:07;;;;;;;;;19.75;17.00;;;;;20.34;56.23;100437.44;5041669;28;45454;-52
2022/12/04 00:57:33;;;;;;;;;14.75;10.50;;;;;20.33;56.27;100447.16;5052815;28;46242;-48
2022/12/04 00:59:58;;;;;;;;;17.75;17.00;;;;;20.33;56.18;100441.88;5039260;28;45276;-49
2022/12/04 01:02:24;;;;;;;;;20.00;17.75;;;;;20.33;55.97;100433.91;5021228;28;50765;-49
2022/12/04 01:04:49;;;;;;;;;18.00;16.75;;;;;20.33;56.38;100436.56;5039299;28;45523;-50
2022/12/04 01:07:14;;;;;;;;;18.50;17.75;;;;;20.33;56.15;100433.91;5023054;28;62929;-48
2022/12/04 01:09:40;;;;;;;;;20.75;17.50;;;;;20.35;56.30;100435.63;5028946;28;45328;-50
2022/12/04 01:12:05;;;;;;;;;21.00;17.75;;;;;20.34;55.99;100432.13;5004478;28;53593;-48
2022/12/04 01:14:31;;;;;;;;;18.25;15.25;;;;;20.34;56.33;100426.81;5051619;28;45310;-47
2022/12/04 01:16:56;;;;;;;;;18.25;15.25;;;;;20.33;56.09;100425.97;5058722;28;59819;-47
2022/12/04 01:19:21;;;;;;;;;17.75;17.00;;;;;20.32;56.26;100429.50;5040694;28;64158;-50
2022/12/04 01:21:47;;;;;;;;;17.50;14.50;;;;;20.33;56.26;100425.09;5058995;28;49278;-50
2022/12/04 01:24:12;;;;;;;;;17.50;15.50;;;;;20.33;55.80;100420.66;5061803;28;45288;-46
2022/12/04 01:26:38;;;;;;;;;23.00;17.00;;;;;20.33;56.12;100422.44;5044260;28;45310;-46
2022/12/04 01:29:03;;;;;;;;;18.75;17.00;;;;;20.34;55.89;100429.47;5044423;28;45681;-50
2022/12/04 01:31:28;;;;;;;;;20.75;17.75;;;;;20.33;56.29;100417.16;5028030;28;45538;-49
2022/12/04 01:33:54;;;;;;;;;19.75;16.50;;;;;20.33;56.11;100415.38;5044676;28;45391;-49
2022/12/04 01:36:21;;;;;;;;;21.75;18.00;;;;;20.33;56.14;100417.16;5062377;28;45323;-47
2022/12/04 01:38:47;;;;;;;;;19.00;16.00;;;;;20.33;55.83;100419.81;5062715;28;45323;-49
2022/12/04 01:41:13;;;;;;;;;22.25;17.75;;;;;20.33;56.03;100425.09;5062647;28;45837;-49
2022/12/04 01:43:38;;;;;;;;;17.50;16.00;;;;;20.32;55.78;100426.84;5028090;28;45337;-51
2022/12/04 01:46:04;;;;;;;;;17.50;17.50;;;;;20.33;56.11;100425.09;5058080;28;48875;-48
2022/12/04 01:48:49;;;;;;;;;16.75;15.75;;;;;20.33;56.25;100425.97;5036532;28;45280;-50
2022/12/04 01:51:21;;;;;;;;;25.00;21.00;;;;;20.33;56.21;100420.66;5041017;28;45541;-47
2022/12/04 01:53:49;;;;;;;;;17.00;14.75;;;;;20.35;56.52;100422.38;5037547;28;45658;-50
2022/12/04 01:56:15;;;;;;;;;19.00;16.00;;;;;20.35;56.24;100435.63;5033750;28;45390;-50
2022/12/04 01:58:42;;;;;;;;;21.25;16.25;;;;;20.34;56.32;100437.44;5014004;28;45338;-49
2022/12/04 02:01:07;;;;;;;;;20.00;15.25;;;;;20.33;56.26;100433.91;5044356;28;45291;-49
2022/12/04 02:03:33;;;;;;;;;21.25;17.00;;;;;20.33;56.39;100425.97;5043914;28;45521;-47
2022/12/04 02:05:58;;;;;;;;;18.25;17.25;;;;;20.35;56.39;100435.63;5044135;28;47120;-49
2022/12/04 02:08:24;;;;;;;;;19.75;16.00;;;;;20.31;56.30;100425.13;5058905;28;45236;-47
2022/12/04 02:10:59;;;;;;;;;23.75;17.25;;;;;20.33;55.85;100427.75;5024413;28;45269;-49
2022/12/04 02:13:49;;;;;;;;;18.00;16.75;;;;;20.33;55.97;100435.69;5041841;28;45226;-46
2022/12/04 02:16:55;;;;;;;;;18.25;16.00;;;;;20.33;56.11;100431.25;5041739;28;45415;-46
2022/12/04 02:19:20;;;;;;;;;20.50;19.00;;;;;20.31;56.30;100421.63;5026672;28;45269;-48
2022/12/04 02:21:46;;;;;;;;;22.50;17.50;;;;;20.31;56.13;100432.22;5041932;28;45294;-50
2022/12/04 02:24:33;;;;;;;;;18.75;18.25;;;;;20.32;56.39;100434.81;5036600;28;45345;-48
2022/12/04 02:27:01;;;;;;;;;23.25;18.75;;;;;20.32;56.28;100431.28;5052571;28;46232;-48
2022/12/04 02:29:30;;;;;;;;;21.25;19.00;;;;;20.32;56.17;100429.50;5020433;28;45342;-47
2022/12/04 02:31:57;;;;;;;;;19.25;15.50;;;;;20.32;56.39;100428.63;5042026;28;45277;-49
2022/12/04 02:34:28;;;;;;;;;19.00;16.75;;;;;20.33;56.05;100425.97;5040940;28;45415;-46
2022/12/04 02:37:03;;;;;;;;;19.50;16.50;;;;;20.33;56.48;100420.66;5024260;28;45373;-46
2022/12/04 02:39:40;;;;;;;;;20.50;16.25;;;;;20.31;56.41;100427.78;5037535;28;45345;-46
2022/12/04 02:42:40;;;;;;;;;17.50;15.50;;;;;20.31;55.87;100414.53;5014079;28;45378;-48
2022/12/04 02:45:08;;;;;;;;;17.75;15.25;;;;;20.31;56.01;100425.13;4997723;28;45756;-46
2022/12/04 02:47:34;;;;;;;;;20.75;17.25;;;;;20.32;56.18;100433.94;5024335;28;45353;-51
2022/12/04 02:50:00;;;;;;;;;19.75;17.25;;;;;20.32;56.51;100429.50;5026074;28;58618;-52
2022/12/04 02:52:30;;;;;;;;;24.75;17.75;;;;;20.33;56.57;100431.25;5043527;28;45351;-52
2022/12/04 02:54:57;;;;;;;;;14.25;13.75;;;;;20.32;56.41;100429.50;5026640;28;45498;-45
2022/12/04 02:57:25;;;;;;;;;15.50;15.00;;;;;20.33;56.44;100433.06;5026551;28;45445;-47
2022/12/04 02:59:51;;;;;;;;;19.00;16.75;;;;;20.32;56.43;100440.09;5048555;28;45277;-48
2022/12/04 03:02:35;;;;;;;;;18.75;16.25;;;;;20.32;56.19;100434.81;5023325;28;45523;-47
2022/12/04 03:05:04;;;;;;;;;24.25;19.00;;;;;20.31;56.27;100430.44;5023242;28;45528;-50
2022/12/04 03:07:31;;;;;;;;;22.00;16.00;;;;;20.32;56.25;100418.91;5018272;28;46300;-49
2022/12/04 03:09:59;;;;;;;;;23.25;18.50;;;;;20.33;56.49;100414.50;5011668;28;45593;-46
2022/12/04 03:12:40;;;;;;;;;16.75;14.50;;;;;20.32;56.56;100412.75;5023132;28;45388;-50
2022/12/04 03:15:18;;;;;;;;;18.50;16.75;;;;;20.32;56.50;100402.13;5022758;28;45463;-46
2022/12/04 03:17:52;;;;;;;;;20.25;16.25;;;;;20.32;56.16;100405.66;5040883;28;46156;-50
2022/12/04 03:20:17;;;;;;;;;16.00;13.75;;;;;20.31;56.55;100406.56;5039314;28;45405;-49
2022/12/04 03:22:43;;;;;;;;;20.50;16.75;;;;;20.32;56.25;100402.13;5035266;28;66573;-49
2022/12/04 03:25:08;;;;;;;;;18.00;16.75;;;;;20.33;56.33;100412.72;5026296;28;45336;-48
2022/12/04 03:27:52;;;;;;;;;19.00;16.75;;;;;20.32;56.18;100400.34;5041956;28;69723;-49
2022/12/04 03:30:20;;;;;;;;;19.00;15.25;;;;;20.31;56.22;100406.56;5051472;28;45317;-45
2022/12/04 03:32:50;;;;;;;;;21.50;16.50;;;;;20.31;56.21;100398.63;5023243;28;45279;-47
2022/12/04 03:35:21;;;;;;;;;20.25;16.50;;;;;20.32;56.43;100403.00;5040485;28;45471;-49
2022/12/04 03:38:07;;;;;;;;;16.25;16.25;;;;;20.32;56.57;100405.66;5040346;28;46003;-48
2022/12/04 03:40:34;;;;;;;;;18.00;16.00;;;;;20.32;56.66;100392.41;5007919;28;45264;-48
2022/12/04 03:43:03;;;;;;;;;20.50;16.50;;;;;20.32;56.34;100392.41;5047408;28;45337;-45
2022/12/04 03:45:53;;;;;;;;;20.50;18.00;;;;;20.32;56.51;100392.41;5025792;28;45490;-46
2022/12/04 03:48:30;;;;;;;;;22.25;18.50;;;;;20.33;56.81;100393.28;5012460;28;45329;-46
2022/12/04 03:50:59;;;;;;;;;15.50;15.50;;;;;20.33;57.07;100383.56;5022267;28;45217;-48
2022/12/04 03:53:29;;;;;;;;;20.50;16.25;;;;;20.34;57.38;100381.78;5035296;28;45354;-47
2022/12/04 03:56:10;;;;;;;;;20.00;17.75;;;;;20.33;57.08;100378.25;4990031;28;45447;-48
2022/12/04 03:58:35;;;;;;;;;22.00;17.50;;;;;20.34;56.78;100371.16;5012547;28;46134;-48
2022/12/04 04:01:02;;;;;;;;;19.50;16.25;;;;;20.34;56.78;100355.25;5042317;28;45246;-49
2022/12/04 04:03:29;;;;;;;;;20.75;18.25;;;;;20.33;56.75;100341.16;4994565;28;45315;-48
2022/12/04 04:06:10;;;;;;;;;18.25;17.50;;;;;20.33;56.76;100341.16;5015985;28;45285;-48
2022/12/04 04:08:37;;;;;;;;;16.00;16.00;;;;;20.33;56.66;100333.19;5010516;28;46544;-47
2022/12/04 04:11:09;;;;;;;;;19.00;16.25;;;;;20.33;56.95;100337.63;5022913;28;45250;-49
2022/12/04 04:25:11;;;;;;;;;17.75;17.75;;;;;20.33;56.72;100319.09;5010946;28;45286;-45
2022/12/04 04:27:36;;;;;;;;;19.00;15.50;;;;;20.32;56.67;100326.13;5039827;28;45348;-50
2022/12/04 04:30:02;;;;;;;;;18.75;16.00;;;;;20.32;56.77;100328.78;5028031;28;60442;-47
2022/12/04 04:32:27;;;;;;;;;12.00;12.00;;;;;20.32;56.99;100344.69;5025499;28;45279;-50
2022/12/04 04:34:59;;;;;;;;;21.75;14.75;;;;;20.32;56.74;100344.69;5038491;28;45297;-50
2022/12/04 04:37:39;;;;;;;;;20.50;16.00;;;;;20.33;56.67;100340.28;5016101;28;45520;-49
2022/12/04 04:40:17;;;;;;;;;18.75;16.00;;;;;20.35;56.76;100337.56;5014699;28;46382;-52
2022/12/04 04:42:46;;;;;;;;;16.75;14.75;;;;;20.33;56.65;100324.38;5038400;28;46454;-49
2022/12/04 04:45:13;;;;;;;;;17.00;15.25;;;;;20.32;56.49;100334.09;5030034;28;45403;-49
2022/12/04 04:48:16;;;;;;;;;19.50;15.00;;;;;20.32;56.72;100341.19;5028430;28;46138;-48
2022/12/04 04:50:41;;;;;;;;;19.50;16.25;;;;;20.32;56.67;100333.22;5010410;28;46056;-51
2022/12/04 04:53:21;;;;;;;;;16.50;14.50;;;;;20.33;56.44;100335.00;5004789;28;61751;-50
2022/12/04 04:55:47;;;;;;;;;15.00;13.50;;;;;20.33;56.73;100341.16;5036024;28;45268;-49
2022/12/04 04:58:17;;;;;;;;;16.75;15.25;;;;;20.33;56.41;100335.84;5013653;28;50382;-50
2022/12/04 05:01:23;;;;;;;;;19.25;15.25;;;;;20.31;56.32;100327.06;5027357;28;46882;-49
2022/12/04 05:03:49;;;;;;;;;20.25;16.25;;;;;20.32;56.73;100331.44;5026031;28;45495;-56
2022/12/04 05:06:14;;;;;;;;;17.00;13.00;;;;;20.33;56.79;100335.00;5042234;28;61159;-48
2022/12/04 05:08:40;;;;;;;;;24.25;16.00;;;;;20.33;56.58;100332.34;5017723;28;45558;-51
2022/12/04 05:11:05;;;;;;;;;16.00;15.25;;;;;20.33;56.26;100349.09;5054153;28;52231;-47
2022/12/04 05:13:30;;;;;;;;;19.75;15.50;;;;;20.33;56.44;100348.25;5062048;28;67240;-50
2022/12/04 05:16:03;;;;;;;;;20.75;17.00;;;;;20.31;56.51;100342.97;5062819;28;45190;-50
2022/12/04 05:18:28;;;;;;;;;16.50;15.25;;;;;20.31;56.43;100348.28;5028968;28;45394;-50
2022/12/04 05:20:54;;;;;;;;;20.75;16.75;;;;;20.32;56.40;100342.03;5015716;28;54543;-50
2022/12/04 05:23:19;;;;;;;;;17.75;14.50;;;;;20.32;56.49;100338.53;5024524;28;45413;-48
2022/12/04 05:25:45;;;;;;;;;16.50;15.00;;;;;20.32;56.39;100336.75;5036990;28;45461;-49
2022/12/04 05:28:10;;;;;;;;;15.25;15.00;;;;;20.33;56.53;100340.28;5044716;28;45422;-50
2022/12/04 05:30:35;;;;;;;;;17.75;14.50;;;;;20.32;56.39;100352.66;5032477;28;45989;-50
2022/12/04 05:33:01;;;;;;;;;14.75;14.00;;;;;20.32;56.61;100355.28;5024510;28;47717;-46
2022/12/04 05:35:26;;;;;;;;;17.25;13.50;;;;;20.32;56.30;100354.44;5024031;28;64834;-45
2022/12/04 05:37:52;;;;;;;;;17.75;15.25;;;;;20.32;56.12;100359.72;5041611;28;65501;-48
2022/12/04 05:40:17;;;;;;;;;21.00;16.50;;;;;20.32;56.56;100363.25;5035410;28;69766;-46
2022/12/04 05:42:42;;;;;;;;;14.75;9.50;;;;;20.32;56.62;100368.53;5026078;28;51051;-45
2022/12/04 05:45:08;;;;;;;;;16.00;15.25;;;;;20.32;56.38;100371.19;5034975;28;62842;-45
2022/12/04 05:47:42;;;;;;;;;17.00;16.50;;;;;20.32;56.50;100384.44;5048130;28;45247;-46
2022/12/04 05:50:09;;;;;;;;;17.75;16.25;;;;;20.31;56.52;100374.78;5062169;28;46060;-46
2022/12/04 05:52:34;;;;;;;;;20.50;16.25;;;;;20.32;56.30;100380.94;5044291;28;45293;-48
2022/12/04 05:55:00;;;;;;;;;18.00;16.00;;;;;20.32;56.42;100380.94;5044463;28;45388;-50
2022/12/04 05:57:25;;;;;;;;;16.00;14.75;;;;;20.32;56.46;100383.59;5044053;28;45250;-45
2022/12/04 05:59:51;;;;;;;;;20.75;15.00;;;;;20.32;56.55;100384.44;5024129;28;48587;-49
2022/12/04 06:02:16;;;;;;;;;15.00;13.50;;;;;20.33;56.54;100382.69;5061134;28;45346;-47
2022/12/04 06:04:42;;;;;;;;;17.50;14.25;;;;;20.31;56.64;100380.06;5062163;28;45534;-48
2022/12/04 06:07:08;;;;;;;;;21.25;15.25;;;;;20.31;56.54;100382.72;5061931;28;45297;-46
2022/12/04 06:09:34;;;;;;;;;16.50;13.00;;;;;20.32;56.64;100395.06;5030884;28;48777;-47
2022/12/04 06:11:59;;;;;;;;;17.75;15.75;;;;;20.32;56.63;100391.53;5042101;28;57486;-46
2022/12/04 06:14:25;;;;;;;;;16.25;13.00;;;;;20.32;56.49;100388.88;5015308;28;48156;-48
2022/12/04 06:16:50;;;;;;;;;17.00;15.00;;;;;20.31;56.64;100377.41;5023306;28;56027;-46
2022/12/04 06:19:17;;;;;;;;;17.25;15.50;;;;;20.31;56.63;100380.06;5018618;28;47879;-50
2022/12/04 06:21:43;;;;;;;;;17.00;15.00;;;;;20.32;56.53;100392.41;5027290;28;45254;-46
2022/12/04 06:24:12;;;;;;;;;17.00;16.00;;;;;20.32;56.21;100386.25;5032431;28;45286;-45
2022/12/04 06:26:37;;;;;;;;;20.50;17.00;;;;;20.32;56.72;100376.50;5023577;28;45454;-46
2022/12/04 06:29:02;;;;;;;;;14.25;13.25;;;;;20.30;56.42;100370.41;5040714;28;62379;-48
2022/12/04 06:31:28;;;;;;;;;18.00;18.00;;;;;20.33;56.55;100378.25;5041478;28;45396;-46
2022/12/04 06:33:54;;;;;;;;;19.75;14.00;;;;;20.32;56.62;100389.75;5041575;28;45372;-45
2022/12/04 06:36:20;;;;;;;;;24.25;16.75;;;;;20.33;56.19;100388.84;5023508;28;45330;-48
2022/12/04 06:38:47;;;;;;;;;17.75;15.25;;;;;20.33;56.43;100386.22;5041630;28;45297;-44
2022/12/04 06:41:13;;;;;;;;;21.00;18.50;;;;;20.33;56.58;100388.84;5042513;28;45478;-47
2022/12/04 06:43:39;;;;;;;;;16.75;13.25;;;;;20.33;56.53;100409.19;5031195;28;45496;-48
2022/12/04 06:46:13;;;;;;;;;12.50;12.50;;;;;20.33;56.51;100396.81;5041080;28;45224;-48
2022/12/04 06:48:39;;;;;;;;;19.25;15.00;;;;;20.33;56.40;100394.16;5054624;28;46443;-45
2022/12/04 06:51:06;;;;;;;;;17.25;13.50;;;;;20.32;56.43;100404.78;5036893;28;45815;-46
2022/12/04 06:53:31;;;;;;;;;14.00;13.25;;;;;20.31;56.36;100385.38;5023481;28;45277;-44
2022/12/04 06:55:57;;;;;;;;;19.00;15.75;;;;;20.33;56.36;100395.94;5013853;28;45433;-45
2022/12/04 06:58:23;;;;;;;;;18.50;13.25;;;;;20.30;56.15;100402.19;5029761;28;45297;-50
2022/12/04 07:00:48;;;;;;;;;16.25;14.00;;;;;20.31;56.22;100401.28;5022988;28;45416;-45
2022/12/04 07:03:14;;;;;;;;;19.50;15.25;;;;;20.32;56.42;100391.53;5023217;28;45412;-46
2022/12/04 07:05:39;;;;;;;;;16.25;15.25;;;;;20.32;56.09;100394.19;5023113;28;45504;-49
2022/12/04 07:08:05;;;;;;;;;16.75;13.25;;;;;20.31;56.30;100411.88;5018238;28;50094;-51
2022/12/04 07:10:30;;;;;;;;;18.25;15.25;;;;;20.31;56.52;100395.09;5042417;28;47972;-53
2022/12/04 07:12:55;;;;;;;;;16.25;14.50;;;;;20.33;56.40;100406.53;5048413;28;45292;-51
2022/12/04 07:15:21;;;;;;;;;13.75;13.00;;;;;20.35;56.46;100411.78;5040235;28;50889;-50
2022/12/04 07:17:46;;;;;;;;;20.25;14.75;;;;;20.36;56.57;100392.31;5041059;28;45246;-54
2022/12/04 07:20:12;;;;;;;;;15.00;13.25;;;;;20.37;56.59;100394.91;5039890;28;61772;-51
2022/12/04 07:22:37;;;;;;;;;16.00;14.50;;;;;20.40;56.84;100401.88;5040685;28;45321;-50
2022/12/04 07:25:03;;;;;;;;;17.50;13.00;;;;;20.39;56.63;100411.59;5051186;28;64575;-52
2022/12/04 07:27:30;;;;;;;;;13.75;12.50;;;;;20.40;56.84;100412.47;5009527;28;46696;-52
2022/12/04 07:29:55;;;;;;;;;17.75;14.00;;;;;20.38;56.82;100414.31;5041210;28;46786;-53
2022/12/04 07:32:20;;;;;;;;;17.25;15.25;;;;;20.38;56.82;100403.72;5017998;28;45265;-50
2022/12/04 07:34:46;;;;;;;;;16.00;15.00;;;;;20.38;56.75;100409.88;5041365;28;50504;-48
2022/12/04 07:37:11;;;;;;;;;14.75;13.00;;;;;20.39;56.99;100410.75;5022740;28;45476;-48
2022/12/04 07:39:37;;;;;;;;;14.00;13.50;;;;;20.39;57.03;100416.91;5038762;28;45753;-50
2022/12/04 07:42:02;;;;;;;;;20.75;14.75;;;;;20.36;56.84;100409.06;5041699;28;56196;-51
2022/12/04 07:44:31;;;;;;;;;14.50;12.00;;;;;20.39;56.99;100397.47;5060224;28;45344;-51
2022/12/04 07:46:56;;;;;;;;;19.00;15.75;;;;;20.40;57.05;100408.03;5031263;28;45446;-54
2022/12/04 07:49:22;;;;;;;;;18.75;16.25;;;;;20.42;57.16;100410.66;5046874;28;46715;-50
2022/12/04 07:51:47;;;;;;;;;16.75;14.25;;;;;20.45;57.08;100402.59;5024385;28;47827;-50
2022/12/04 07:54:12;;;;;;;;;16.00;15.50;;;;;20.46;56.81;100393.72;5042262;28;45460;-51
2022/12/04 07:56:38;;;;;;;;;20.00;15.75;;;;;20.49;56.88;100393.59;5059999;28;45576;-47
2022/12/04 07:59:03;;;;;;;;;15.25;13.75;;;;;20.50;56.92;100397.97;5047870;28;63319;-51
2022/12/04 08:01:29;;;;;;;;;20.00;16.25;;;;;20.51;57.00;100391.78;5023967;28;45962;-50
2022/12/04 08:03:55;;;;;;;;;23.75;16.00;;;;;20.52;56.71;100394.38;5025808;28;45646;-47
2022/12/04 08:06:22;;;;;;;;;15.00;14.50;;;;;20.53;56.99;100388.16;5025456;28;46218;-47
2022/12/04 08:08:47;;;;;;;;;20.75;15.25;;;;;20.55;56.88;100398.69;5030424;28;45377;-45
2022/12/04 08:11:15;;;;;;;;;15.50;14.25;;;;;20.56;56.84;100395.09;5022300;28;45466;-47
2022/12/04 08:13:40;;;;;;;;;20.25;16.00;;;;;20.56;56.79;100392.47;5034641;28;45343;-53
2022/12/04 08:16:07;;;;;;;;;18.50;14.50;;;;;20.58;56.93;100387.97;5021850;28;47799;-56
2022/12/04 08:18:32;;;;;;;;;18.00;16.00;;;;;20.58;56.88;100387.97;5035045;28;45200;-50
2022/12/04 08:21:05;;;;;;;;;18.00;15.00;;;;;20.60;56.92;100386.13;5059748;28;56925;-51
2022/12/04 08:23:30;;;;;;;;;18.25;14.75;;;;;20.62;56.39;100388.72;5042549;28;45486;-50
2022/12/04 08:25:58;;;;;;;;;13.75;8.75;;;;;20.63;56.46;100387.78;5042042;28;45380;-51
2022/12/04 08:28:24;;;;;;;;;20.75;15.50;;;;;20.63;56.29;100386.00;5041999;28;45265;-51
2022/12/04 08:30:49;;;;;;;;;16.75;15.50;;;;;20.63;56.00;100401.91;5059508;28;59786;-50
2022/12/04 08:33:15;;;;;;;;;15.00;14.50;;;;;20.64;55.84;100394.81;5056028;28;60027;-47
2022/12/04 08:35:40;;;;;;;;;16.00;13.25;;;;;20.62;56.00;100389.59;5044704;28;72539;-52
2022/12/04 08:38:06;;;;;;;;;12.75;12.25;;;;;20.63;56.15;100396.63;5045409;28;45377;-50
2022/12/04 08:40:32;;;;;;;;;16.25;14.25;;;;;20.63;55.90;100399.28;5063647;28;45243;-47
2022/12/04 08:42:57;;;;;;;;;14.75;14.75;;;;;20.64;55.63;100403.63;5045315;28;45376;-51
2022/12/04 08:45:22;;;;;;;;;19.50;16.75;;;;;20.64;56.10;100401.00;5024831;28;56738;-49
2022/12/04 08:47:48;;;;;;;;;16.50;15.00;;;;;20.64;55.86;100405.44;5061027;28;57943;-53
2022/12/04 08:50:14;;;;;;;;;16.75;13.25;;;;;20.65;55.90;100410.66;5042058;28;45277;-48
2022/12/04 08:52:39;;;;;;;;;20.50;14.00;;;;;20.65;55.95;100409.81;5041860;28;45360;-47
2022/12/04 08:55:05;;;;;;;;;18.00;13.25;;;;;20.66;55.92;100420.34;5041206;28;68672;-49
2022/12/04 08:57:30;;;;;;;;;15.75;13.00;;;;;20.67;56.00;100419.44;5014207;28;45376;-45
2022/12/04 08:59:56;;;;;;;;;18.75;15.00;;;;;20.68;56.02;100417.66;5013582;28;45368;-49
2022/12/04 09:02:21;;;;;;;;;17.50;14.50;;;;;20.68;56.30;100415.03;5035553;28;66893;-51
2022/12/04 09:04:47;;;;;;;;;14.75;14.50;;;;;20.68;56.35;100409.72;5023036;28;46306;-49
2022/12/04 09:07:12;;;;;;;;;18.00;15.00;;;;;20.69;56.42;100411.44;5039401;28;45915;-47
2022/12/04 09:09:37;;;;;;;;;19.00;15.75;;;;;20.70;56.47;100421.97;5030105;28;52282;-49
2022/12/04 09:12:03;;;;;;;;;16.50;15.25;;;;;20.69;56.38;100416.75;5022829;28;45550;-48
2022/12/04 09:14:28;;;;;;;;;23.25;17.00;;;;;20.69;56.59;100407.00;5021557;28;45915;-50
2022/12/04 09:16:54;;;;;;;;;17.75;14.75;;;;;20.70;56.72;100403.41;5026504;28;58012;-50
2022/12/04 09:19:19;;;;;;;;;21.75;17.00;;;;;20.70;56.45;100405.22;5030668;28;45361;-48
2022/12/04 09:21:45;;;;;;;;;16.50;15.00;;;;;20.69;56.38;100414.97;5021370;28;45289;-52
2022/12/04 09:24:10;;;;;;;;;23.25;18.25;;;;;20.71;56.74;100415.75;4995915;28;46307;-51
2022/12/04 09:26:35;;;;;;;;;19.50;14.25;;;;;20.71;56.63;100413.09;5018331;28;59516;-53
2022/12/04 09:29:02;;;;;;;;;21.75;16.25;;;;;20.73;55.40;100410.38;5033416;28;45789;-55
2022/12/04 09:31:27;;;;;;;;;18.25;15.25;;;;;20.70;56.34;100406.06;5041580;28;45466;-51
2022/12/04 09:33:53;;;;;;;;;19.75;17.25;;;;;20.68;56.18;100404.41;5037173;28;46263;-47
2022/12/04 09:36:18;;;;;;;;;21.00;15.50;;;;;20.66;56.12;100400.94;5024137;28;45418;-54
2022/12/04 09:38:45;;;;;;;;;14.25;13.25;;;;;20.63;55.90;100404.56;5012206;28;45556;-48
2022/12/04 09:41:19;;;;;;;;;19.25;14.75;;;;;20.62;55.93;100409.94;5004694;28;45451;-48
2022/12/04 09:44:15;;;;;;;;;18.25;15.50;;;;;20.60;55.79;100412.66;5022377;28;45528;-48
2022/12/04 09:47:12;;;;;;;;;21.75;17.25;;;;;20.57;55.61;100418.91;5010436;28;45860;-49
2022/12/04 09:49:49;;;;;;;;;17.50;14.25;;;;;20.56;55.33;100416.31;4978427;28;45253;-48
2022/12/04 09:52:43;;;;;;;;;17.50;15.75;;;;;20.53;55.47;100422.59;5008930;28;45327;-50
2022/12/04 09:55:22;;;;;;;;;15.50;14.50;;;;;20.51;55.53;100413.84;5042242;28;46166;-49
2022/12/04 09:57:48;;;;;;;;;17.25;15.75;;;;;20.50;55.46;100404.19;5031682;28;45427;-50
2022/12/04 10:00:16;;;;;;;;;19.25;17.25;;;;;20.50;55.61;100411.22;5024922;28;45364;-49
2022/12/04 10:02:44;;;;;;;;;20.25;19.00;;;;;20.49;55.27;100409.50;5044444;28;45382;-46
2022/12/04 10:05:40;;;;;;;;;17.25;15.25;;;;;20.47;55.53;100398.09;5044080;28;45543;-47
2022/12/04 10:08:17;;;;;;;;;19.50;17.00;;;;;20.48;55.07;100405.13;5061621;28;45347;-50
2022/12/04 10:10:59;;;;;;;;;20.50;14.50;;;;;20.47;55.11;100395.44;5032781;28;45410;-48
2022/12/04 10:13:32;;;;;;;;;21.50;17.00;;;;;20.48;55.30;100403.34;5009017;28;45322;-50
2022/12/04 10:16:24;;;;;;;;;18.75;16.00;;;;;20.46;55.19;100405.19;5034501;28;46393;-48
2022/12/04 10:18:57;;;;;;;;;18.25;17.00;;;;;20.44;54.82;100393.78;5030716;28;45722;-46
2022/12/04 10:21:34;;;;;;;;;19.75;16.75;;;;;20.45;55.00;100402.59;5044113;28;45355;-48
2022/12/04 10:24:09;;;;;;;;;19.00;15.75;;;;;20.45;55.20;100402.59;5044437;28;45450;-50
2022/12/04 10:26:38;;;;;;;;;16.25;15.00;;;;;20.43;55.30;100401.78;5026931;28;46106;-47
2022/12/04 10:29:06;;;;;;;;;24.50;17.00;;;;;20.43;55.12;100386.75;5043303;28;45436;-49
2022/12/04 10:31:32;;;;;;;;;14.25;12.25;;;;;20.42;54.99;100386.78;5031619;28;45417;-52
2022/12/04 10:34:04;;;;;;;;;20.25;17.75;;;;;20.43;54.80;100381.47;5043670;28;45297;-51
2022/12/04 10:36:33;;;;;;;;;20.50;17.50;;;;;20.43;54.82;100381.47;5019800;28;45341;-51
2022/12/04 10:39:03;;;;;;;;;21.50;16.75;;;;;20.46;55.24;100399.03;5008122;28;45687;-50
2022/12/04 10:41:50;;;;;;;;;18.25;15.00;;;;;20.48;55.24;100397.19;5041767;28;45349;-48
2022/12/04 10:44:16;;;;;;;;;21.75;16.75;;;;;20.48;55.50;100397.19;5030448;28;45511;-51
2022/12/04 10:46:42;;;;;;;;;21.00;18.00;;;;;20.49;55.67;100394.47;5027133;28;46611;-52
2022/12/04 10:49:28;;;;;;;;;24.50;20.00;;;;;20.50;55.57;100396.22;5041878;28;45439;-51
2022/12/04 10:51:53;;;;;;;;;21.50;17.75;;;;;20.52;55.45;100390.84;5043521;28;45382;-52
2022/12/04 10:54:25;;;;;;;;;23.75;19.50;;;;;20.53;55.34;100403.19;5061465;28;45442;-50
2022/12/04 10:56:56;;;;;;;;;24.75;23.50;;;;;20.53;55.81;100396.09;5034421;28;47260;-48
2022/12/04 10:59:21;;;;;;;;;21.00;18.50;;;;;20.54;55.45;100392.53;5060041;28;45256;-47
2022/12/04 11:01:47;;;;;;;;;26.50;21.50;;;;;20.54;55.28;100386.34;5061538;28;45288;-49
2022/12/04 11:04:23;;;;;;;;;33.75;24.25;;;;;20.53;55.13;100387.28;5026553;28;45235;-52
2022/12/04 11:06:50;;;;;;;;;25.50;20.25;;;;;20.49;55.06;100383.88;5026109;28;45329;-48
2022/12/04 11:09:21;;;;;;;;;23.00;20.00;;;;;20.46;55.09;100384.00;5041852;28;46200;-50
2022/12/04 11:11:46;;;;;;;;;29.75;23.00;;;;;20.45;55.49;100389.34;5027062;28;45383;-49
2022/12/04 11:14:12;;;;;;;;;26.75;18.75;;;;;20.45;55.80;100395.50;4997490;28;45278;-49
2022/12/04 11:16:39;;;;;;;;;20.25;18.25;;;;;20.47;55.99;100390.16;5040713;28;46299;-53
2022/12/04 11:19:24;;;;;;;;;25.25;20.50;;;;;20.49;56.15;100383.00;5006823;28;45258;-48
2022/12/04 11:21:51;;;;;;;;;27.00;22.25;;;;;20.50;55.63;100374.13;5057005;28;45288;-45
2022/12/04 11:24:34;;;;;;;;;25.75;21.00;;;;;20.50;55.79;100377.66;5025661;28;45494;-51
2022/12/04 11:27:03;;;;;;;;;24.25;21.25;;;;;20.51;55.87;100378.53;5015088;28;45538;-50
2022/12/04 11:29:36;;;;;;;;;23.00;19.25;;;;;20.52;55.92;100374.94;5042534;28;45383;-52